sensor_id;sensor_type;location;lat;lon;timestamp;temperature;humidity
20246;DHT22;10281;54.406;18.556;2023-10-08T00:01:09;9.30;99.90
20246;DHT22;10281;54.406;18.556;2023-10-08T00:03:39;9.30;99.90
20246;DHT22;10281;54.406;18.556;2023-10-08T00:06:07;9.20;99.90
20246;DHT22;10281;54.406;18.556;2023-10-08T00:08:35;9.20;99.90
20246;DHT22;10281;54.406;18.556;2023-10-08T00:11:02;9.10;99.90
20246;DHT22;10281;54.406;18.556;2023-10-08T00:13:33;9.10;99.90
20246;DHT22;10281;54.406;18.556;2023-10-08T00:16:03;9.10;99.90
20246;DHT22;10281;54.406;18.556;2023-10-08T00:18:32;9.10;99.90
20246;DHT22;10281;54.406;18.556;2023-10-08T00:20:59;9.10;99.90
20246;DHT22;10281;54.406;18.556;2023-10-08T00:23:44;9.00;99.90
20246;DHT22;10281;54.406;18.556;2023-10-08T00:26:19;9.00;99.90
20246;DHT22;10281;54.406;18.556;2023-10-08T00:28:48;8.90;99.90
20246;DHT22;10281;54.406;18.556;2023-10-08T00:31:17;8.80;99.90
20246;DHT22;10281;54.406;18.556;2023-10-08T00:33:44;8.80;99.90
20246;DHT22;10281;54.406;18.556;2023-10-08T00:36:11;8.80;99.90
20246;DHT22;10281;54.406;18.556;2023-10-08T00:38:45;8.80;99.90
20246;DHT22;10281;54.406;18.556;2023-10-08T00:41:14;8.70;99.90
20246;DHT22;10281;54.406;18.556;2023-10-08T00:43:41;8.70;99.90
20246;DHT22;10281;54.406;18.556;2023-10-08T00:46:10;8.70;99.90
20246;DHT22;10281;54.406;18.556;2023-10-08T00:48:55;8.70;99.90
20246;DHT22;10281;54.406;18.556;2023-10-08T00:51:24;8.70;99.90
20246;DHT22;10281;54.406;18.556;2023-10-08T00:53:56;8.70;99.90
20246;DHT22;10281;54.406;18.556;2023-10-08T00:56:27;8.60;99.90
20246;DHT22;10281;54.406;18.556;2023-10-08T00:58:56;8.60;99.90
20246;DHT22;10281;54.406;18.556;2023-10-08T01:01:24;8.60;99.90
20246;DHT22;10281;54.406;18.556;2023-10-08T01:03:51;8.60;99.90
20246;DHT22;10281;54.406;18.556;2023-10-08T01:06:20;8.60;99.90
20246;DHT22;10281;54.406;18.556;2023-10-08T01:08:47;8.60;99.90
20246;DHT22;10281;54.406;18.556;2023-10-08T01:11:18;8.60;99.90
20246;DHT22;10281;54.406;18.556;2023-10-08T01:13:47;8.50;99.90
20246;DHT22;10281;54.406;18.556;2023-10-08T01:16:15;8.60;99.90
20246;DHT22;10281;54.406;18.556;2023-10-08T01:18:43;8.50;99.90
20246;DHT22;10281;54.406;18.556;2023-10-08T01:21:12;8.50;99.90
20246;DHT22;10281;54.406;18.556;2023-10-08T01:23:40;8.50;99.90
20246;DHT22;10281;54.406;18.556;2023-10-08T01:26:08;8.50;99.90
20246;DHT22;10281;54.406;18.556;2023-10-08T01:28:38;8.40;99.90
20246;DHT22;10281;54.406;18.556;2023-10-08T01:31:06;8.40;99.90
20246;DHT22;10281;54.406;18.556;2023-10-08T01:33:33;8.40;99.90
20246;DHT22;10281;54.406;18.556;2023-10-08T01:36:01;8.30;99.90
20246;DHT22;10281;54.406;18.556;2023-10-08T01:38:31;8.30;99.90
20246;DHT22;10281;54.406;18.556;2023-10-08T01:40:59;8.30;99.90
20246;DHT22;10281;54.406;18.556;2023-10-08T01:43:29;8.30;99.90
20246;DHT22;10281;54.406;18.556;2023-10-08T01:45:56;8.30;99.90
20246;DHT22;10281;54.406;18.556;2023-10-08T01:48:23;8.30;99.90
20246;DHT22;10281;54.406;18.556;2023-10-08T01:50:55;8.30;99.90
20246;DHT22;10281;54.406;18.556;2023-10-08T01:53:27;8.30;99.90
20246;DHT22;10281;54.406;18.556;2023-10-08T01:55:54;8.20;99.90
20246;DHT22;10281;54.406;18.556;2023-10-08T01:58:21;8.20;99.90
20246;DHT22;10281;54.406;18.556;2023-10-08T02:00:49;8.20;99.90
20246;DHT22;10281;54.406;18.556;2023-10-08T02:03:18;8.10;99.90
20246;DHT22;10281;54.406;18.556;2023-10-08T02:05:45;8.10;99.90
20246;DHT22;10281;54.406;18.556;2023-10-08T02:08:13;8.00;99.90
20246;DHT22;10281;54.406;18.556;2023-10-08T02:10:42;8.00;99.90
20246;DHT22;10281;54.406;18.556;2023-10-08T02:13:10;8.00;99.90
20246;DHT22;10281;54.406;18.556;2023-10-08T02:15:40;8.00;99.90
20246;DHT22;10281;54.406;18.556;2023-10-08T02:18:06;8.00;99.90
20246;DHT22;10281;54.406;18.556;2023-10-08T02:20:33;7.90;99.90
20246;DHT22;10281;54.406;18.556;2023-10-08T02:23:00;7.90;99.90
20246;DHT22;10281;54.406;18.556;2023-10-08T02:25:27;7.90;99.90
20246;DHT22;10281;54.406;18.556;2023-10-08T02:27:54;7.90;99.90
20246;DHT22;10281;54.406;18.556;2023-10-08T02:30:21;7.80;99.90
20246;DHT22;10281;54.406;18.556;2023-10-08T02:32:47;7.90;99.90
20246;DHT22;10281;54.406;18.556;2023-10-08T02:35:15;7.80;99.90
20246;DHT22;10281;54.406;18.556;2023-10-08T02:37:42;7.80;99.90
20246;DHT22;10281;54.406;18.556;2023-10-08T02:40:11;7.80;99.90
20246;DHT22;10281;54.406;18.556;2023-10-08T02:42:57;7.80;99.90
20246;DHT22;10281;54.406;18.556;2023-10-08T02:45:27;7.80;99.90
20246;DHT22;10281;54.406;18.556;2023-10-08T02:47:56;7.80;99.90
20246;DHT22;10281;54.406;18.556;2023-10-08T02:50:23;7.70;99.90
20246;DHT22;10281;54.406;18.556;2023-10-08T02:52:52;7.70;99.90
20246;DHT22;10281;54.406;18.556;2023-10-08T02:55:18;7.70;99.90
20246;DHT22;10281;54.406;18.556;2023-10-08T02:57:51;7.80;99.90
20246;DHT22;10281;54.406;18.556;2023-10-08T03:00:17;7.70;99.90
20246;DHT22;10281;54.406;18.556;2023-10-08T03:02:46;7.70;99.90
20246;DHT22;10281;54.406;18.556;2023-10-08T03:05:13;7.70;99.90
20246;DHT22;10281;54.406;18.556;2023-10-08T03:07:42;7.70;99.90
20246;DHT22;10281;54.406;18.556;2023-10-08T03:10:09;7.70;99.90
20246;DHT22;10281;54.406;18.556;2023-10-08T03:12:42;7.70;99.90
20246;DHT22;10281;54.406;18.556;2023-10-08T03:15:09;7.70;99.90
20246;DHT22;10281;54.406;18.556;2023-10-08T03:17:41;7.70;99.90
20246;DHT22;10281;54.406;18.556;2023-10-08T03:20:12;7.70;99.90
20246;DHT22;10281;54.406;18.556;2023-10-08T03:22:44;7.70;99.90
20246;DHT22;10281;54.406;18.556;2023-10-08T03:25:13;7.70;99.90
20246;DHT22;10281;54.406;18.556;2023-10-08T03:27:43;7.60;99.90
20246;DHT22;10281;54.406;18.556;2023-10-08T03:30:10;7.60;99.90
20246;DHT22;10281;54.406;18.556;2023-10-08T03:32:40;7.60;99.90
20246;DHT22;10281;54.406;18.556;2023-10-08T03:35:09;7.50;99.90
20246;DHT22;10281;54.406;18.556;2023-10-08T03:37:36;7.50;99.90
20246;DHT22;10281;54.406;18.556;2023-10-08T03:40:10;7.50;99.90
20246;DHT22;10281;54.406;18.556;2023-10-08T03:42:43;7.40;99.90
20246;DHT22;10281;54.406;18.556;2023-10-08T03:45:11;7.40;99.90
20246;DHT22;10281;54.406;18.556;2023-10-08T03:47:39;7.40;99.90
20246;DHT22;10281;54.406;18.556;2023-10-08T03:50:08;7.40;99.90
20246;DHT22;10281;54.406;18.556;2023-10-08T03:52:36;7.40;99.90
20246;DHT22;10281;54.406;18.556;2023-10-08T03:55:06;7.30;99.90
20246;DHT22;10281;54.406;18.556;2023-10-08T03:57:45;7.30;99.90
20246;DHT22;10281;54.406;18.556;2023-10-08T04:00:14;7.20;99.90
20246;DHT22;10281;54.406;18.556;2023-10-08T04:02:45;7.20;99.90
20246;DHT22;10281;54.406;18.556;2023-10-08T04:05:14;7.10;99.90
20246;DHT22;10281;54.406;18.556;2023-10-08T04:07:46;7.10;99.90
20246;DHT22;10281;54.406;18.556;2023-10-08T04:10:18;7.20;99.90
20246;DHT22;10281;54.406;18.556;2023-10-08T04:13:04;7.10;99.90
20246;DHT22;10281;54.406;18.556;2023-10-08T04:15:32;7.10;99.90
20246;DHT22;10281;54.406;18.556;2023-10-08T04:17:59;7.10;99.90
20246;DHT22;10281;54.406;18.556;2023-10-08T04:20:28;7.10;99.90
20246;DHT22;10281;54.406;18.556;2023-10-08T04:23:04;7.10;99.90
20246;DHT22;10281;54.406;18.556;2023-10-08T04:25:32;7.20;99.90
20246;DHT22;10281;54.406;18.556;2023-10-08T04:28:00;7.20;99.90
20246;DHT22;10281;54.406;18.556;2023-10-08T04:30:28;7.10;99.90
20246;DHT22;10281;54.406;18.556;2023-10-08T04:33:02;7.10;99.90
20246;DHT22;10281;54.406;18.556;2023-10-08T04:35:34;7.20;99.90
20246;DHT22;10281;54.406;18.556;2023-10-08T04:38:05;7.10;99.90
20246;DHT22;10281;54.406;18.556;2023-10-08T04:40:35;7.10;99.90
20246;DHT22;10281;54.406;18.556;2023-10-08T04:43:15;7.10;99.90
20246;DHT22;10281;54.406;18.556;2023-10-08T04:45:43;7.00;99.90
20246;DHT22;10281;54.406;18.556;2023-10-08T04:48:12;7.10;99.90
20246;DHT22;10281;54.406;18.556;2023-10-08T04:50:40;7.10;99.90
20246;DHT22;10281;54.406;18.556;2023-10-08T04:53:09;7.10;99.90
20246;DHT22;10281;54.406;18.556;2023-10-08T04:55:36;7.10;99.90
20246;DHT22;10281;54.406;18.556;2023-10-08T04:58:04;7.10;99.90
20246;DHT22;10281;54.406;18.556;2023-10-08T05:00:33;7.00;99.90
20246;DHT22;10281;54.406;18.556;2023-10-08T05:03:20;7.10;99.90
20246;DHT22;10281;54.406;18.556;2023-10-08T05:05:49;7.10;99.90
20246;DHT22;10281;54.406;18.556;2023-10-08T05:08:22;7.10;99.90
20246;DHT22;10281;54.406;18.556;2023-10-08T05:10:57;7.00;99.90
20246;DHT22;10281;54.406;18.556;2023-10-08T05:13:29;7.00;99.90
20246;DHT22;10281;54.406;18.556;2023-10-08T05:15:59;7.00;99.90
20246;DHT22;10281;54.406;18.556;2023-10-08T05:18:30;7.00;99.90
20246;DHT22;10281;54.406;18.556;2023-10-08T05:21:03;7.00;99.90
20246;DHT22;10281;54.406;18.556;2023-10-08T05:23:31;7.00;99.90
20246;DHT22;10281;54.406;18.556;2023-10-08T05:26:03;7.10;99.90
20246;DHT22;10281;54.406;18.556;2023-10-08T05:28:39;7.10;99.90
20246;DHT22;10281;54.406;18.556;2023-10-08T05:31:13;7.10;99.90
20246;DHT22;10281;54.406;18.556;2023-10-08T05:33:55;7.10;99.90
20246;DHT22;10281;54.406;18.556;2023-10-08T05:36:28;7.10;99.90
20246;DHT22;10281;54.406;18.556;2023-10-08T05:38:57;7.20;99.90
20246;DHT22;10281;54.406;18.556;2023-10-08T05:41:29;7.20;99.90
20246;DHT22;10281;54.406;18.556;2023-10-08T05:44:00;7.20;99.90
20246;DHT22;10281;54.406;18.556;2023-10-08T05:46:32;7.30;99.90
20246;DHT22;10281;54.406;18.556;2023-10-08T05:49:03;7.30;99.90
20246;DHT22;10281;54.406;18.556;2023-10-08T05:51:47;7.30;99.90
20246;DHT22;10281;54.406;18.556;2023-10-08T05:54:31;7.30;99.90
20246;DHT22;10281;54.406;18.556;2023-10-08T05:57:06;7.40;99.90
20246;DHT22;10281;54.406;18.556;2023-10-08T05:59:40;7.50;99.90
20246;DHT22;10281;54.406;18.556;2023-10-08T06:02:13;7.50;99.90
20246;DHT22;10281;54.406;18.556;2023-10-08T06:04:45;7.60;99.90
20246;DHT22;10281;54.406;18.556;2023-10-08T06:07:18;7.60;99.90
20246;DHT22;10281;54.406;18.556;2023-10-08T06:09:46;7.70;99.90
20246;DHT22;10281;54.406;18.556;2023-10-08T06:12:30;7.70;99.90
20246;DHT22;10281;54.406;18.556;2023-10-08T06:14:56;7.80;99.90
20246;DHT22;10281;54.406;18.556;2023-10-08T06:17:38;7.80;99.90
20246;DHT22;10281;54.406;18.556;2023-10-08T06:20:12;8.00;99.90
20246;DHT22;10281;54.406;18.556;2023-10-08T06:22:41;8.00;99.90
20246;DHT22;10281;54.406;18.556;2023-10-08T06:25:08;8.10;99.90
20246;DHT22;10281;54.406;18.556;2023-10-08T06:27:40;8.10;99.90
20246;DHT22;10281;54.406;18.556;2023-10-08T06:30:08;8.20;99.90
20246;DHT22;10281;54.406;18.556;2023-10-08T06:32:36;8.20;99.90
20246;DHT22;10281;54.406;18.556;2023-10-08T06:35:04;8.30;99.90
20246;DHT22;10281;54.406;18.556;2023-10-08T06:37:31;8.40;99.90
20246;DHT22;10281;54.406;18.556;2023-10-08T06:39:59;8.40;99.90
20246;DHT22;10281;54.406;18.556;2023-10-08T06:42:26;8.50;99.90
20246;DHT22;10281;54.406;18.556;2023-10-08T06:44:55;8.50;99.90
20246;DHT22;10281;54.406;18.556;2023-10-08T06:47:23;8.60;99.90
20246;DHT22;10281;54.406;18.556;2023-10-08T06:49:50;8.60;99.90
20246;DHT22;10281;54.406;18.556;2023-10-08T06:52:17;8.60;99.90
20246;DHT22;10281;54.406;18.556;2023-10-08T06:54:45;8.70;99.90
20246;DHT22;10281;54.406;18.556;2023-10-08T06:57:13;8.70;99.90
20246;DHT22;10281;54.406;18.556;2023-10-08T06:59:40;8.80;99.90
20246;DHT22;10281;54.406;18.556;2023-10-08T07:02:08;8.80;99.90
20246;DHT22;10281;54.406;18.556;2023-10-08T07:04:36;8.90;99.90
20246;DHT22;10281;54.406;18.556;2023-10-08T07:07:03;8.90;99.90
20246;DHT22;10281;54.406;18.556;2023-10-08T07:09:31;9.00;99.90
20246;DHT22;10281;54.406;18.556;2023-10-08T07:12:00;9.00;99.90
20246;DHT22;10281;54.406;18.556;2023-10-08T07:14:28;9.00;99.90
20246;DHT22;10281;54.406;18.556;2023-10-08T07:16:58;9.10;99.90
20246;DHT22;10281;54.406;18.556;2023-10-08T07:19:26;9.10;99.90
20246;DHT22;10281;54.406;18.556;2023-10-08T07:21:55;9.20;99.90
20246;DHT22;10281;54.406;18.556;2023-10-08T07:24:24;9.20;99.90
20246;DHT22;10281;54.406;18.556;2023-10-08T07:26:50;9.30;99.90
20246;DHT22;10281;54.406;18.556;2023-10-08T07:29:18;9.30;99.90
20246;DHT22;10281;54.406;18.556;2023-10-08T07:31:46;9.40;99.90
20246;DHT22;10281;54.406;18.556;2023-10-08T07:34:16;9.40;99.90
20246;DHT22;10281;54.406;18.556;2023-10-08T07:36:46;9.40;99.90
20246;DHT22;10281;54.406;18.556;2023-10-08T07:39:14;9.50;99.90
20246;DHT22;10281;54.406;18.556;2023-10-08T07:41:46;9.60;99.90
20246;DHT22;10281;54.406;18.556;2023-10-08T07:44:14;9.60;99.90
20246;DHT22;10281;54.406;18.556;2023-10-08T07:46:40;9.70;99.90
20246;DHT22;10281;54.406;18.556;2023-10-08T07:49:07;9.70;99.90
20246;DHT22;10281;54.406;18.556;2023-10-08T07:51:36;9.70;99.90
20246;DHT22;10281;54.406;18.556;2023-10-08T07:54:03;9.70;99.90
20246;DHT22;10281;54.406;18.556;2023-10-08T07:56:32;9.80;99.90
20246;DHT22;10281;54.406;18.556;2023-10-08T07:58:58;9.80;99.90
20246;DHT22;10281;54.406;18.556;2023-10-08T08:01:25;9.90;99.90
20246;DHT22;10281;54.406;18.556;2023-10-08T08:03:52;9.90;99.90
20246;DHT22;10281;54.406;18.556;2023-10-08T08:06:18;10.00;99.90
20246;DHT22;10281;54.406;18.556;2023-10-08T08:08:45;10.00;99.90
20246;DHT22;10281;54.406;18.556;2023-10-08T08:11:11;10.10;99.90
20246;DHT22;10281;54.406;18.556;2023-10-08T08:13:39;10.10;99.60
20246;DHT22;10281;54.406;18.556;2023-10-08T08:16:11;10.10;99.90
20246;DHT22;10281;54.406;18.556;2023-10-08T08:18:47;10.20;99.90
20246;DHT22;10281;54.406;18.556;2023-10-08T08:21:16;10.20;98.60
20246;DHT22;10281;54.406;18.556;2023-10-08T08:23:44;10.30;98.80
20246;DHT22;10281;54.406;18.556;2023-10-08T08:26:16;10.30;96.50
20246;DHT22;10281;54.406;18.556;2023-10-08T08:28:48;10.20;96.10
20246;DHT22;10281;54.406;18.556;2023-10-08T08:31:15;10.30;96.70
20246;DHT22;10281;54.406;18.556;2023-10-08T08:33:42;10.30;97.20
20246;DHT22;10281;54.406;18.556;2023-10-08T08:36:30;10.40;97.50
20246;DHT22;10281;54.406;18.556;2023-10-08T08:38:59;10.50;97.50
20246;DHT22;10281;54.406;18.556;2023-10-08T08:41:27;10.50;98.10
20246;DHT22;10281;54.406;18.556;2023-10-08T08:43:54;10.60;97.60
20246;DHT22;10281;54.406;18.556;2023-10-08T08:46:28;10.60;96.30
20246;DHT22;10281;54.406;18.556;2023-10-08T08:49:03;10.60;96.00
20246;DHT22;10281;54.406;18.556;2023-10-08T08:51:30;10.50;96.40
20246;DHT22;10281;54.406;18.556;2023-10-08T08:53:57;10.50;95.60
20246;DHT22;10281;54.406;18.556;2023-10-08T08:56:26;10.60;96.60
20246;DHT22;10281;54.406;18.556;2023-10-08T08:58:55;10.50;96.50
20246;DHT22;10281;54.406;18.556;2023-10-08T09:01:25;10.60;96.90
20246;DHT22;10281;54.406;18.556;2023-10-08T09:03:52;10.60;96.80
20246;DHT22;10281;54.406;18.556;2023-10-08T09:06:20;10.70;97.80
20246;DHT22;10281;54.406;18.556;2023-10-08T09:08:47;10.70;97.20
20246;DHT22;10281;54.406;18.556;2023-10-08T09:11:16;10.70;96.80
20246;DHT22;10281;54.406;18.556;2023-10-08T09:13:43;10.80;97.40
20246;DHT22;10281;54.406;18.556;2023-10-08T09:16:14;10.80;97.60
20246;DHT22;10281;54.406;18.556;2023-10-08T09:18:43;10.80;96.60
20246;DHT22;10281;54.406;18.556;2023-10-08T09:21:15;10.80;96.30
20246;DHT22;10281;54.406;18.556;2023-10-08T09:23:49;10.90;97.80
20246;DHT22;10281;54.406;18.556;2023-10-08T09:26:16;10.90;95.60
20246;DHT22;10281;54.406;18.556;2023-10-08T09:28:46;10.90;94.60
20246;DHT22;10281;54.406;18.556;2023-10-08T09:31:13;10.90;94.60
20246;DHT22;10281;54.406;18.556;2023-10-08T09:33:40;10.80;94.30
20246;DHT22;10281;54.406;18.556;2023-10-08T09:36:09;10.80;95.50
20246;DHT22;10281;54.406;18.556;2023-10-08T09:38:39;10.90;95.10
20246;DHT22;10281;54.406;18.556;2023-10-08T09:41:06;10.80;95.30
20246;DHT22;10281;54.406;18.556;2023-10-08T09:43:34;10.90;95.40
20246;DHT22;10281;54.406;18.556;2023-10-08T09:46:19;10.90;94.80
20246;DHT22;10281;54.406;18.556;2023-10-08T09:48:50;11.00;94.90
20246;DHT22;10281;54.406;18.556;2023-10-08T09:51:19;11.00;94.10
20246;DHT22;10281;54.406;18.556;2023-10-08T09:56:29;11.00;94.10
20246;DHT22;10281;54.406;18.556;2023-10-08T09:58:56;11.00;93.50
20246;DHT22;10281;54.406;18.556;2023-10-08T10:01:23;10.90;92.80
20246;DHT22;10281;54.406;18.556;2023-10-08T10:03:50;10.90;91.90
20246;DHT22;10281;54.406;18.556;2023-10-08T10:06:18;11.00;93.70
20246;DHT22;10281;54.406;18.556;2023-10-08T10:08:47;10.90;91.80
20246;DHT22;10281;54.406;18.556;2023-10-08T10:11:15;10.90;91.30
20246;DHT22;10281;54.406;18.556;2023-10-08T10:13:44;10.90;93.00
20246;DHT22;10281;54.406;18.556;2023-10-08T10:16:18;10.90;93.90
20246;DHT22;10281;54.406;18.556;2023-10-08T10:18:49;10.90;93.70
20246;DHT22;10281;54.406;18.556;2023-10-08T10:21:32;10.90;93.00
20246;DHT22;10281;54.406;18.556;2023-10-08T10:23:59;10.90;94.30
20246;DHT22;10281;54.406;18.556;2023-10-08T10:26:31;11.00;94.60
20246;DHT22;10281;54.406;18.556;2023-10-08T10:31:52;11.10;94.20
20246;DHT22;10281;54.406;18.556;2023-10-08T10:34:23;11.10;93.00
20246;DHT22;10281;54.406;18.556;2023-10-08T10:36:51;11.00;93.60
20246;DHT22;10281;54.406;18.556;2023-10-08T10:39:20;10.90;94.00
20246;DHT22;10281;54.406;18.556;2023-10-08T10:41:54;11.00;94.40
20246;DHT22;10281;54.406;18.556;2023-10-08T10:44:24;11.00;93.70
20246;DHT22;10281;54.406;18.556;2023-10-08T10:46:51;11.00;92.60
20246;DHT22;10281;54.406;18.556;2023-10-08T10:49:20;11.10;92.80
20246;DHT22;10281;54.406;18.556;2023-10-08T10:51:50;11.00;93.30
20246;DHT22;10281;54.406;18.556;2023-10-08T10:54:20;11.00;94.00
20246;DHT22;10281;54.406;18.556;2023-10-08T10:56:49;10.90;94.10
20246;DHT22;10281;54.406;18.556;2023-10-08T10:59:18;10.80;93.40
20246;DHT22;10281;54.406;18.556;2023-10-08T11:01:46;10.90;94.50
20246;DHT22;10281;54.406;18.556;2023-10-08T11:04:15;10.90;93.90
20246;DHT22;10281;54.406;18.556;2023-10-08T11:06:46;11.00;95.50
20246;DHT22;10281;54.406;18.556;2023-10-08T11:09:14;11.00;95.00
20246;DHT22;10281;54.406;18.556;2023-10-08T11:11:43;11.00;94.50
20246;DHT22;10281;54.406;18.556;2023-10-08T11:14:12;10.90;94.60
20246;DHT22;10281;54.406;18.556;2023-10-08T11:16:43;10.90;94.30
20246;DHT22;10281;54.406;18.556;2023-10-08T11:19:10;10.80;94.50
20246;DHT22;10281;54.406;18.556;2023-10-08T11:21:50;10.70;95.30
20246;DHT22;10281;54.406;18.556;2023-10-08T11:24:33;10.70;95.70
20246;DHT22;10281;54.406;18.556;2023-10-08T11:27:01;10.60;94.50
20246;DHT22;10281;54.406;18.556;2023-10-08T11:29:34;10.70;95.30
20246;DHT22;10281;54.406;18.556;2023-10-08T11:32:04;10.70;93.70
20246;DHT22;10281;54.406;18.556;2023-10-08T11:34:33;10.70;93.90
20246;DHT22;10281;54.406;18.556;2023-10-08T11:37:03;10.70;94.50
20246;DHT22;10281;54.406;18.556;2023-10-08T11:39:39;10.60;94.40
20246;DHT22;10281;54.406;18.556;2023-10-08T11:42:08;10.60;95.20
20246;DHT22;10281;54.406;18.556;2023-10-08T11:44:36;10.70;95.20
20246;DHT22;10281;54.406;18.556;2023-10-08T11:47:03;10.70;95.80
20246;DHT22;10281;54.406;18.556;2023-10-08T11:49:33;10.80;96.10
20246;DHT22;10281;54.406;18.556;2023-10-08T11:52:02;10.80;96.80
20246;DHT22;10281;54.406;18.556;2023-10-08T11:54:29;10.80;96.50
20246;DHT22;10281;54.406;18.556;2023-10-08T11:57:00;10.80;96.90
20246;DHT22;10281;54.406;18.556;2023-10-08T11:59:29;10.70;95.90
20246;DHT22;10281;54.406;18.556;2023-10-08T12:01:55;10.80;97.10
20246;DHT22;10281;54.406;18.556;2023-10-08T12:04:22;10.80;96.10
20246;DHT22;10281;54.406;18.556;2023-10-08T12:06:49;10.70;96.10
20246;DHT22;10281;54.406;18.556;2023-10-08T12:09:18;10.80;95.40
20246;DHT22;10281;54.406;18.556;2023-10-08T12:11:47;10.80;96.30
20246;DHT22;10281;54.406;18.556;2023-10-08T12:14:14;10.70;95.80
20246;DHT22;10281;54.406;18.556;2023-10-08T12:16:41;10.70;96.30
20246;DHT22;10281;54.406;18.556;2023-10-08T12:19:10;10.70;96.50
20246;DHT22;10281;54.406;18.556;2023-10-08T12:21:42;10.80;96.00
20246;DHT22;10281;54.406;18.556;2023-10-08T12:24:11;10.80;95.20
20246;DHT22;10281;54.406;18.556;2023-10-08T12:26:38;10.80;95.80
20246;DHT22;10281;54.406;18.556;2023-10-08T12:29:10;10.80;96.40
20246;DHT22;10281;54.406;18.556;2023-10-08T12:31:38;10.90;96.40
20246;DHT22;10281;54.406;18.556;2023-10-08T12:34:05;10.90;96.70
20246;DHT22;10281;54.406;18.556;2023-10-08T12:36:32;10.80;96.40
20246;DHT22;10281;54.406;18.556;2023-10-08T12:39:01;10.80;96.80
20246;DHT22;10281;54.406;18.556;2023-10-08T12:41:31;10.90;97.50
20246;DHT22;10281;54.406;18.556;2023-10-08T12:43:57;10.90;97.10
20246;DHT22;10281;54.406;18.556;2023-10-08T12:46:24;10.80;96.10
20246;DHT22;10281;54.406;18.556;2023-10-08T12:48:52;10.90;96.70
20246;DHT22;10281;54.406;18.556;2023-10-08T12:51:21;10.80;96.40
20246;DHT22;10281;54.406;18.556;2023-10-08T12:53:51;10.80;97.00
20246;DHT22;10281;54.406;18.556;2023-10-08T12:56:20;10.70;95.20
20246;DHT22;10281;54.406;18.556;2023-10-08T12:58:49;10.60;95.80
20246;DHT22;10281;54.406;18.556;2023-10-08T13:01:18;10.70;97.30
20246;DHT22;10281;54.406;18.556;2023-10-08T13:03:46;10.80;96.90
20246;DHT22;10281;54.406;18.556;2023-10-08T13:06:15;10.90;97.70
20246;DHT22;10281;54.406;18.556;2023-10-08T13:08:44;10.70;95.00
20246;DHT22;10281;54.406;18.556;2023-10-08T13:11:11;10.70;95.90
20246;DHT22;10281;54.406;18.556;2023-10-08T13:13:38;10.60;95.30
20246;DHT22;10281;54.406;18.556;2023-10-08T13:16:05;10.60;96.00
20246;DHT22;10281;54.406;18.556;2023-10-08T13:18:34;10.60;95.50
20246;DHT22;10281;54.406;18.556;2023-10-08T13:21:03;10.50;95.80
20246;DHT22;10281;54.406;18.556;2023-10-08T13:23:31;10.60;96.70
20246;DHT22;10281;54.406;18.556;2023-10-08T13:25:59;10.60;96.40
20246;DHT22;10281;54.406;18.556;2023-10-08T13:28:28;10.60;96.30
20246;DHT22;10281;54.406;18.556;2023-10-08T13:30:54;10.60;96.40
20246;DHT22;10281;54.406;18.556;2023-10-08T13:33:22;10.60;96.40
20246;DHT22;10281;54.406;18.556;2023-10-08T13:35:49;10.50;96.70
20246;DHT22;10281;54.406;18.556;2023-10-08T13:38:18;10.50;96.30
20246;DHT22;10281;54.406;18.556;2023-10-08T13:40:47;10.50;97.30
20246;DHT22;10281;54.406;18.556;2023-10-08T13:43:19;10.50;96.70
20246;DHT22;10281;54.406;18.556;2023-10-08T13:45:45;10.50;96.90
20246;DHT22;10281;54.406;18.556;2023-10-08T13:48:12;10.50;97.50
20246;DHT22;10281;54.406;18.556;2023-10-08T13:50:40;10.50;97.90
20246;DHT22;10281;54.406;18.556;2023-10-08T13:53:08;10.40;97.40
20246;DHT22;10281;54.406;18.556;2023-10-08T13:55:34;10.40;98.00
20246;DHT22;10281;54.406;18.556;2023-10-08T13:58:01;10.50;98.10
20246;DHT22;10281;54.406;18.556;2023-10-08T14:00:28;10.40;98.20
20246;DHT22;10281;54.406;18.556;2023-10-08T14:02:56;10.50;98.50
20246;DHT22;10281;54.406;18.556;2023-10-08T14:05:24;10.40;98.70
20246;DHT22;10281;54.406;18.556;2023-10-08T14:07:51;10.40;98.80
20246;DHT22;10281;54.406;18.556;2023-10-08T14:10:19;10.40;98.80
20246;DHT22;10281;54.406;18.556;2023-10-08T14:12:46;10.40;99.40
20246;DHT22;10281;54.406;18.556;2023-10-08T14:15:16;10.40;99.90
20246;DHT22;10281;54.406;18.556;2023-10-08T14:17:45;10.30;99.10
20246;DHT22;10281;54.406;18.556;2023-10-08T14:20:15;10.40;99.20
20246;DHT22;10281;54.406;18.556;2023-10-08T14:22:44;10.40;99.40
20246;DHT22;10281;54.406;18.556;2023-10-08T14:25:10;10.40;99.90
20246;DHT22;10281;54.406;18.556;2023-10-08T14:27:38;10.40;99.50
20246;DHT22;10281;54.406;18.556;2023-10-08T14:30:08;10.40;99.70
20246;DHT22;10281;54.406;18.556;2023-10-08T14:32:36;10.40;99.90
20246;DHT22;10281;54.406;18.556;2023-10-08T14:35:04;10.40;99.90
20246;DHT22;10281;54.406;18.556;2023-10-08T14:37:36;10.40;99.90
20246;DHT22;10281;54.406;18.556;2023-10-08T14:40:09;10.40;99.80
20246;DHT22;10281;54.406;18.556;2023-10-08T14:42:41;10.40;99.90
20246;DHT22;10281;54.406;18.556;2023-10-08T14:45:13;10.40;99.90
20246;DHT22;10281;54.406;18.556;2023-10-08T14:47:42;10.40;99.90
20246;DHT22;10281;54.406;18.556;2023-10-08T14:50:11;10.30;99.90
20246;DHT22;10281;54.406;18.556;2023-10-08T14:52:39;10.30;99.90
20246;DHT22;10281;54.406;18.556;2023-10-08T14:55:06;10.30;99.90
20246;DHT22;10281;54.406;18.556;2023-10-08T14:57:33;10.30;99.90
20246;DHT22;10281;54.406;18.556;2023-10-08T14:59:59;10.30;99.90
20246;DHT22;10281;54.406;18.556;2023-10-08T15:02:28;10.40;99.90
20246;DHT22;10281;54.406;18.556;2023-10-08T15:04:55;10.30;99.90
20246;DHT22;10281;54.406;18.556;2023-10-08T15:07:22;10.30;99.90
20246;DHT22;10281;54.406;18.556;2023-10-08T15:09:49;10.30;99.90
20246;DHT22;10281;54.406;18.556;2023-10-08T15:12:15;10.10;99.90
20246;DHT22;10281;54.406;18.556;2023-10-08T15:14:43;10.10;99.90
20246;DHT22;10281;54.406;18.556;2023-10-08T15:17:10;10.10;99.90
20246;DHT22;10281;54.406;18.556;2023-10-08T15:19:38;10.00;99.90
20246;DHT22;10281;54.406;18.556;2023-10-08T15:22:05;10.00;99.90
20246;DHT22;10281;54.406;18.556;2023-10-08T15:24:32;10.00;99.90
20246;DHT22;10281;54.406;18.556;2023-10-08T15:27:00;9.90;99.90
20246;DHT22;10281;54.406;18.556;2023-10-08T15:29:27;9.90;99.90
20246;DHT22;10281;54.406;18.556;2023-10-08T15:31:54;9.80;99.90
20246;DHT22;10281;54.406;18.556;2023-10-08T15:34:23;9.90;99.90
20246;DHT22;10281;54.406;18.556;2023-10-08T15:36:53;9.80;99.90
20246;DHT22;10281;54.406;18.556;2023-10-08T15:39:20;9.80;99.90
20246;DHT22;10281;54.406;18.556;2023-10-08T15:41:50;9.70;99.90
20246;DHT22;10281;54.406;18.556;2023-10-08T15:44:17;9.70;99.90